Time;durP1;ratioP1;P1;durP2;ratioP2;P2;SDS_P1;SDS_P2;PMS_P1;PMS_P2;Temp;Humidity;BMP_temperature;BMP_pressure;BME280_temperature;BME280_humidity;BME280_pressure;Samples;Min_cycle;Max_cycle;Signal;HPM_P1;HPM_P2
2020/01/28 00:02:43;;;;;;;1.90;1.70;;;;;;;18.87;39.14;99128.41;;;;-52
2020/01/28 00:05:21;;;;;;;1.81;1.53;;;;;;;18.86;39.12;99132.80;;;;-53
2020/01/28 00:08:19;;;;;;;1.82;1.65;;;;;;;18.85;39.14;99128.53;;;;-50
2020/01/28 00:11:15;;;;;;;1.74;1.62;;;;;;;18.84;39.13;99124.39;;;;-50
2020/01/28 00:14:15;;;;;;;1.72;1.54;;;;;;;18.82;39.14;99124.17;;;;-50
2020/01/28 00:17:15;;;;;;;1.75;1.61;;;;;;;18.80;39.15;99117.02;;;;-48
2020/01/28 00:20:15;;;;;;;2.01;1.67;;;;;;;18.80;39.14;99119.03;;;;-52
2020/01/28 00:23:15;;;;;;;2.28;1.65;;;;;;;18.77;39.16;99111.83;;;;-52
2020/01/28 00:26:15;;;;;;;2.16;1.70;;;;;;;18.75;39.15;99105.02;;;;-52
2020/01/28 00:29:15;;;;;;;1.87;1.67;;;;;;;18.74;39.14;99099.91;;;;-50
2020/01/28 00:32:15;;;;;;;2.47;1.69;;;;;;;18.73;39.17;99096.95;;;;-50
2020/01/28 00:35:15;;;;;;;1.95;1.53;;;;;;;18.72;39.17;99093.17;;;;-50
2020/01/28 00:38:15;;;;;;;1.72;1.62;;;;;;;18.71;39.16;99094.05;;;;-50
2020/01/28 00:41:15;;;;;;;1.72;1.55;;;;;;;18.71;39.18;99092.05;;;;-50
2020/01/28 00:44:15;;;;;;;1.79;1.63;;;;;;;18.69;39.16;99093.93;;;;-50
2020/01/28 00:47:15;;;;;;;2.19;1.81;;;;;;;18.67;39.20;99087.02;;;;-50
2020/01/28 00:50:15;;;;;;;1.85;1.58;;;;;;;18.68;39.16;99082.94;;;;-50
2020/01/28 00:53:15;;;;;;;1.77;1.67;;;;;;;18.65;39.20;99083.03;;;;-50
2020/01/28 00:56:15;;;;;;;1.98;1.70;;;;;;;18.64;39.21;99091.53;;;;-50
2020/01/28 00:59:15;;;;;;;2.02;1.47;;;;;;;18.63;39.23;99091.20;;;;-50
2020/01/28 01:02:15;;;;;;;1.69;1.53;;;;;;;18.62;39.22;99093.08;;;;-50
2020/01/28 01:05:15;;;;;;;1.54;1.44;;;;;;;18.61;39.23;99086.20;;;;-50
2020/01/28 01:08:15;;;;;;;1.69;1.51;;;;;;;18.60;39.20;99086.52;;;;-50
2020/01/28 01:11:15;;;;;;;1.68;1.52;;;;;;;18.59;39.21;99089.59;;;;-50
2020/01/28 01:14:15;;;;;;;1.67;1.39;;;;;;;18.58;39.24;99098.50;;;;-50
2020/01/28 01:17:29;;;;;;;1.67;1.56;;;;;;;18.57;39.24;99097.90;;;;-50
2020/01/28 01:23:20;;;;;;;1.81;1.50;;;;;;;18.55;39.26;99093.23;;;;-50
2020/01/28 01:26:15;;;;;;;1.63;1.53;;;;;;;18.54;39.24;99091.61;;;;-50
2020/01/28 01:29:15;;;;;;;1.62;1.40;;;;;;;18.53;39.26;99088.17;;;;-50
2020/01/28 01:32:15;;;;;;;1.55;1.45;;;;;;;18.52;39.29;99093.73;;;;-50
2020/01/28 01:35:15;;;;;;;1.64;1.51;;;;;;;18.51;39.29;99100.25;;;;-50
2020/01/28 01:38:15;;;;;;;1.83;1.47;;;;;;;18.50;39.29;99103.14;;;;-50
2020/01/28 01:41:15;;;;;;;1.60;1.50;;;;;;;18.49;39.26;99094.75;;;;-49
2020/01/28 01:44:15;;;;;;;1.67;1.40;;;;;;;18.48;39.29;99087.13;;;;-50
2020/01/28 01:47:15;;;;;;;1.53;1.43;;;;;;;18.47;39.33;99067.45;;;;-50
2020/01/28 01:50:15;;;;;;;1.75;1.36;;;;;;;18.44;39.33;99063.02;;;;-50
2020/01/28 01:53:15;;;;;;;1.60;1.50;;;;;;;18.43;39.33;99062.77;;;;-50
2020/01/28 01:56:15;;;;;;;1.54;1.44;;;;;;;18.43;39.33;99056.98;;;;-50
2020/01/28 01:59:15;;;;;;;1.49;1.39;;;;;;;18.42;39.35;99050.09;;;;-50
2020/01/28 02:02:15;;;;;;;1.52;1.42;;;;;;;18.42;39.37;99048.86;;;;-50
2020/01/28 02:05:15;;;;;;;1.49;1.39;;;;;;;18.40;39.33;99041.29;;;;-50
2020/01/28 02:08:15;;;;;;;1.42;1.30;;;;;;;18.40;39.33;99035.18;;;;-50
2020/01/28 02:11:15;;;;;;;1.60;1.50;;;;;;;18.38;39.41;99032.31;;;;-50
2020/01/28 02:14:15;;;;;;;1.49;1.39;;;;;;;18.37;39.36;99020.42;;;;-50
2020/01/28 02:17:15;;;;;;;1.58;1.48;;;;;;;18.36;39.36;99012.03;;;;-50
2020/01/28 02:20:15;;;;;;;1.60;1.50;;;;;;;18.35;39.37;99011.52;;;;-50
2020/01/28 02:23:15;;;;;;;1.57;1.47;;;;;;;18.35;39.36;99008.57;;;;-50
2020/01/28 02:26:15;;;;;;;1.50;1.40;;;;;;;18.33;39.36;99003.44;;;;-50
2020/01/28 02:29:15;;;;;;;1.44;1.34;;;;;;;18.32;39.40;98993.62;;;;-50
2020/01/28 02:32:15;;;;;;;1.60;1.50;;;;;;;18.32;39.39;98998.23;;;;-49
2020/01/28 02:35:15;;;;;;;1.43;1.33;;;;;;;18.31;39.40;98990.19;;;;-50
2020/01/28 02:38:15;;;;;;;1.47;1.37;;;;;;;18.29;39.44;98985.69;;;;-50
2020/01/28 02:41:15;;;;;;;1.45;1.35;;;;;;;18.29;39.42;98986.55;;;;-50
2020/01/28 02:44:15;;;;;;;1.51;1.41;;;;;;;18.28;39.38;98982.85;;;;-50
2020/01/28 02:47:15;;;;;;;1.41;1.31;;;;;;;18.28;39.33;98983.06;;;;-50
2020/01/28 02:50:15;;;;;;;1.82;1.40;;;;;;;18.26;39.41;98984.34;;;;-51
2020/01/28 02:53:15;;;;;;;1.51;1.28;;;;;;;18.26;39.44;98983.27;;;;-51
2020/01/28 02:56:15;;;;;;;1.42;1.32;;;;;;;18.25;39.36;98978.09;;;;-50
2020/01/28 02:59:15;;;;;;;1.39;1.29;;;;;;;18.24;39.40;98979.81;;;;-50
2020/01/28 03:02:15;;;;;;;1.53;1.43;;;;;;;18.23;39.42;98979.75;;;;-50
2020/01/28 03:05:15;;;;;;;1.49;1.39;;;;;;;18.23;39.42;98970.63;;;;-50
2020/01/28 03:08:15;;;;;;;1.48;1.38;;;;;;;18.21;39.45;98967.60;;;;-50
2020/01/28 03:14:16;;;;;;;1.40;1.30;;;;;;;18.19;39.43;98955.76;;;;-49
2020/01/28 03:17:15;;;;;;;1.59;1.49;;;;;;;18.19;39.44;98950.58;;;;-50
2020/01/28 03:20:15;;;;;;;1.50;1.40;;;;;;;18.18;39.47;98943.37;;;;-50
2020/01/28 03:23:15;;;;;;;1.43;1.30;;;;;;;18.18;39.46;98935.92;;;;-50
2020/01/28 03:26:15;;;;;;;1.54;1.40;;;;;;;18.16;39.46;98929.88;;;;-49
2020/01/28 03:29:15;;;;;;;1.49;1.39;;;;;;;18.16;39.45;98927.37;;;;-50
2020/01/28 03:32:15;;;;;;;1.42;1.32;;;;;;;18.16;39.44;98924.78;;;;-50
2020/01/28 03:35:15;;;;;;;1.49;1.34;;;;;;;18.14;39.47;98929.83;;;;-50
2020/01/28 03:38:15;;;;;;;1.45;1.35;;;;;;;18.14;39.49;98932.84;;;;-50
2020/01/28 03:41:15;;;;;;;1.40;1.30;;;;;;;18.13;39.50;98930.88;;;;-50
2020/01/28 03:44:15;;;;;;;1.54;1.40;;;;;;;18.12;39.51;98926.78;;;;-50
2020/01/28 03:47:15;;;;;;;1.39;1.29;;;;;;;18.11;39.46;98925.58;;;;-50
2020/01/28 03:50:15;;;;;;;1.37;1.27;;;;;;;18.11;39.49;98920.73;;;;-50
2020/01/28 03:53:15;;;;;;;1.39;1.29;;;;;;;18.10;39.47;98908.41;;;;-50
2020/01/28 03:56:15;;;;;;;1.30;1.20;;;;;;;18.10;39.56;98910.59;;;;-50
2020/01/28 03:59:15;;;;;;;1.30;1.20;;;;;;;18.09;39.48;98914.91;;;;-50
2020/01/28 04:02:15;;;;;;;1.37;1.27;;;;;;;18.08;39.48;98915.89;;;;-50
2020/01/28 04:05:15;;;;;;;1.39;1.29;;;;;;;18.08;39.50;98922.23;;;;-49
2020/01/28 04:08:15;;;;;;;1.33;1.23;;;;;;;18.07;39.51;98914.62;;;;-50
2020/01/28 04:11:15;;;;;;;1.40;1.30;;;;;;;18.09;39.56;98914.58;;;;-50
2020/01/28 04:14:15;;;;;;;1.31;1.21;;;;;;;18.10;39.51;98913.09;;;;-49
2020/01/28 04:17:22;;;;;;;1.25;1.20;;;;;;;18.11;39.52;98907.95;;;;-50
2020/01/28 04:20:19;;;;;;;1.45;1.27;;;;;;;18.13;39.53;98909.50;;;;-50
2020/01/28 04:23:19;;;;;;;1.37;1.27;;;;;;;18.15;39.52;98908.72;;;;-49
2020/01/28 04:26:15;;;;;;;1.30;1.20;;;;;;;18.17;39.52;98901.58;;;;-50
2020/01/28 04:29:15;;;;;;;1.33;1.23;;;;;;;18.19;39.52;98890.70;;;;-50
2020/01/28 04:32:15;;;;;;;1.33;1.23;;;;;;;18.23;39.50;98894.11;;;;-50
2020/01/28 04:35:15;;;;;;;1.97;1.26;;;;;;;18.27;39.43;98883.78;;;;-51
2020/01/28 04:38:15;;;;;;;1.37;1.20;;;;;;;18.30;39.43;98881.95;;;;-51
2020/01/28 04:41:15;;;;;;;1.37;1.27;;;;;;;18.33;39.48;98875.66;;;;-51
2020/01/28 04:44:15;;;;;;;1.30;1.20;;;;;;;18.37;39.36;98870.17;;;;-51
2020/01/28 04:47:15;;;;;;;1.28;1.19;;;;;;;18.41;39.49;98867.39;;;;-51
2020/01/28 04:51:15;;;;;;;1.29;1.20;;;;;;;18.44;39.44;98847.34;;;;-50
2020/01/28 04:54:15;;;;;;;1.28;1.18;;;;;;;18.48;39.33;98842.66;;;;-50
2020/01/28 04:57:15;;;;;;;1.25;1.15;;;;;;;18.51;39.45;98833.86;;;;-50
2020/01/28 05:00:15;;;;;;;1.30;1.20;;;;;;;18.54;39.48;98824.47;;;;-50
2020/01/28 05:03:15;;;;;;;1.29;1.20;;;;;;;18.56;39.46;98816.48;;;;-50
2020/01/28 05:06:15;;;;;;;1.30;1.20;;;;;;;18.58;39.53;98810.68;;;;-50
2020/01/28 05:09:15;;;;;;;1.40;1.30;;;;;;;18.60;39.45;98810.42;;;;-50
2020/01/28 05:12:15;;;;;;;1.27;1.17;;;;;;;18.62;39.43;98812.27;;;;-50
2020/01/28 05:15:15;;;;;;;1.20;1.10;;;;;;;18.63;39.40;98802.52;;;;-50
2020/01/28 05:18:15;;;;;;;2.49;1.27;;;;;;;18.64;39.39;98790.75;;;;-50
2020/01/28 05:21:15;;;;;;;1.10;1.10;;;;;;;18.65;39.44;98786.09;;;;-50
2020/01/28 05:24:28;;;;;;;1.37;1.27;;;;;;;18.66;39.39;98777.58;;;;-50
2020/01/28 05:27:15;;;;;;;1.24;1.14;;;;;;;18.66;39.35;98774.50;;;;-50
2020/01/28 05:30:15;;;;;;;1.12;1.10;;;;;;;18.67;39.37;98775.76;;;;-50
2020/01/28 05:33:26;;;;;;;1.31;1.21;;;;;;;18.67;39.32;98772.08;;;;-50
2020/01/28 05:36:15;;;;;;;1.23;1.13;;;;;;;18.66;39.26;98764.38;;;;-50
2020/01/28 05:39:15;;;;;;;1.19;1.17;;;;;;;18.67;39.31;98755.70;;;;-50
2020/01/28 05:42:15;;;;;;;1.01;1.01;;;;;;;18.66;39.35;98750.93;;;;-50
2020/01/28 05:45:15;;;;;;;1.16;1.13;;;;;;;18.66;39.28;98737.78;;;;-50
2020/01/28 05:48:15;;;;;;;1.18;1.10;;;;;;;18.66;39.25;98730.53;;;;-50
2020/01/28 05:51:15;;;;;;;1.20;1.10;;;;;;;18.65;39.24;98721.22;;;;-49
2020/01/28 05:54:15;;;;;;;1.30;1.20;;;;;;;18.65;39.28;98718.20;;;;-50
2020/01/28 05:57:15;;;;;;;1.11;1.11;;;;;;;18.64;39.26;98732.39;;;;-50
2020/01/28 06:05:34;;;;;;;1.12;1.10;;;;;;;18.63;39.24;98718.20;;;;-50
2020/01/28 06:08:18;;;;;;;1.15;1.09;;;;;;;18.62;39.22;98709.55;;;;-50
2020/01/28 06:11:15;;;;;;;1.11;1.10;;;;;;;18.63;39.27;98713.09;;;;-50
2020/01/28 06:14:15;;;;;;;1.17;1.12;;;;;;;18.63;39.25;98704.46;;;;-50
2020/01/28 06:17:15;;;;;;;1.07;1.03;;;;;;;18.62;39.21;98700.95;;;;-50
2020/01/28 06:20:15;;;;;;;1.10;1.10;;;;;;;18.62;39.24;98701.02;;;;-50
2020/01/28 06:23:15;;;;;;;1.04;1.04;;;;;;;18.62;39.24;98695.52;;;;-50
2020/01/28 06:26:15;;;;;;;3.45;1.35;;;;;;;18.62;39.46;98696.52;;;;-50
2020/01/28 06:29:15;;;;;;;1.63;1.11;;;;;;;18.63;39.67;98691.59;;;;-46
2020/01/28 06:32:15;;;;;;;1.11;1.01;;;;;;;18.65;39.72;98689.79;;;;-46
2020/01/28 06:35:15;;;;;;;1.37;1.21;;;;;;;18.66;39.76;98688.64;;;;-47
2020/01/28 06:38:15;;;;;;;2.74;1.29;;;;;;;18.67;39.60;98688.42;;;;-49
2020/01/28 06:41:15;;;;;;;1.69;1.20;;;;;;;18.66;39.60;98685.22;;;;-49
2020/01/28 06:44:15;;;;;;;1.42;1.11;;;;;;;18.67;39.50;98686.48;;;;-49
2020/01/28 06:47:15;;;;;;;2.67;1.19;;;;;;;18.66;39.46;98672.42;;;;-49
2020/01/28 06:50:15;;;;;;;1.31;1.13;;;;;;;18.66;39.37;98663.56;;;;-49
2020/01/28 06:53:15;;;;;;;1.20;1.10;;;;;;;18.65;39.38;98657.52;;;;-49
2020/01/28 06:56:15;;;;;;;1.20;1.10;;;;;;;18.64;39.42;98655.09;;;;-49
2020/01/28 06:59:15;;;;;;;1.45;1.25;;;;;;;18.64;39.35;98652.48;;;;-46
2020/01/28 07:02:15;;;;;;;3.28;1.11;;;;;;;18.64;39.40;98641.71;;;;-45
2020/01/28 07:05:15;;;;;;;2.21;1.28;;;;;;;18.66;39.35;98647.34;;;;-46
2020/01/28 07:08:15;;;;;;;2.32;1.20;;;;;;;18.65;39.30;98639.13;;;;-46
2020/01/28 07:11:15;;;;;;;2.03;1.09;;;;;;;18.64;39.32;98639.88;;;;-46
2020/01/28 07:14:15;;;;;;;1.09;1.00;;;;;;;18.64;39.29;98638.28;;;;-46
2020/01/28 07:17:15;;;;;;;1.87;1.10;;;;;;;18.62;39.32;98631.08;;;;-46
2020/01/28 07:20:15;;;;;;;1.85;1.16;;;;;;;18.62;39.28;98629.72;;;;-46
2020/01/28 07:23:15;;;;;;;1.35;1.13;;;;;;;18.61;39.28;98626.61;;;;-46
2020/01/28 07:26:15;;;;;;;1.88;1.18;;;;;;;18.61;39.28;98625.69;;;;-46
2020/01/28 07:29:15;;;;;;;1.87;1.03;;;;;;;18.59;39.27;98617.20;;;;-46
2020/01/28 07:32:15;;;;;;;1.10;1.00;;;;;;;18.59;39.29;98617.31;;;;-46
2020/01/28 07:38:21;;;;;;;1.09;1.04;;;;;;;18.58;39.31;98613.12;;;;-46
2020/01/28 07:41:15;;;;;;;2.61;1.20;;;;;;;18.58;39.25;98610.25;;;;-50
2020/01/28 07:44:15;;;;;;;1.17;1.05;;;;;;;18.58;39.28;98605.93;;;;-49
2020/01/28 07:47:15;;;;;;;1.25;1.15;;;;;;;18.57;39.27;98598.39;;;;-46
2020/01/28 07:50:15;;;;;;;1.21;1.10;;;;;;;18.58;39.28;98597.87;;;;-49
2020/01/28 07:53:15;;;;;;;2.32;1.10;;;;;;;18.58;39.25;98591.38;;;;-51
2020/01/28 07:56:15;;;;;;;1.12;1.03;;;;;;;18.58;39.26;98599.31;;;;-51
2020/01/28 07:59:16;;;;;;;1.63;1.24;;;;;;;18.58;39.30;98596.78;;;;-46
2020/01/28 08:02:15;;;;;;;1.20;1.10;;;;;;;18.58;39.27;98584.70;;;;-48
2020/01/28 08:05:15;;;;;;;0.95;0.95;;;;;;;18.58;39.26;98578.02;;;;-51
2020/01/28 08:08:15;;;;;;;1.15;1.01;;;;;;;18.59;39.24;98571.01;;;;-51
2020/01/28 08:11:15;;;;;;;3.35;1.10;;;;;;;18.63;40.07;98569.55;;;;-47
2020/01/28 08:14:15;;;;;;;0.99;0.99;;;;;;;18.64;40.33;98559.80;;;;-53
2020/01/28 08:17:15;;;;;;;2.54;0.92;;;;;;;18.67;40.35;98570.45;;;;-48
2020/01/28 08:20:18;;;;;;;1.18;1.02;;;;;;;18.68;40.38;98578.48;;;;-57
2020/01/28 08:23:15;;;;;;;0.98;0.91;;;;;;;18.71;40.42;98631.48;;;;-60
2020/01/28 08:26:23;;;;;;;1.43;1.03;;;;;;;18.74;40.38;98737.78;;;;-49
2020/01/28 08:29:19;;;;;;;2.18;1.05;;;;;;;18.75;40.02;98773.32;;;;-55
2020/01/28 08:33:07;;;;;;;1.76;0.99;;;;;;;18.73;39.73;98757.83;;;;-48
2020/01/28 08:36:21;;;;;;;1.37;1.10;;;;;;;18.76;39.90;98725.84;;;;-51
2020/01/28 08:39:15;;;;;;;1.81;1.20;;;;;;;18.79;40.05;98731.93;;;;-50
2020/01/28 08:42:15;;;;;;;1.55;1.27;;;;;;;18.80;40.04;98736.56;;;;-43
2020/01/28 08:45:15;;;;;;;1.24;1.09;;;;;;;18.82;40.12;98734.69;;;;-54
2020/01/28 08:48:15;;;;;;;1.22;1.12;;;;;;;18.85;40.25;98713.22;;;;-59
2020/01/28 08:51:15;;;;;;;4.28;1.10;;;;;;;18.85;40.10;98713.41;;;;-52
2020/01/28 08:54:15;;;;;;;1.81;1.10;;;;;;;18.86;40.11;98695.63;;;;-53
2020/01/28 08:57:15;;;;;;;3.08;1.09;;;;;;;18.88;40.12;98688.88;;;;-56
2020/01/28 09:00:15;;;;;;;1.73;1.03;;;;;;;18.89;39.87;98671.48;;;;-56
2020/01/28 09:03:15;;;;;;;1.29;1.10;;;;;;;18.89;39.75;98673.98;;;;-56
2020/01/28 09:06:15;;;;;;;1.39;1.09;;;;;;;18.88;39.68;98703.59;;;;-56
2020/01/28 09:09:15;;;;;;;2.40;1.10;;;;;;;18.88;39.65;98721.56;;;;-56
2020/01/28 09:12:15;;;;;;;1.23;1.05;;;;;;;18.88;39.59;98731.34;;;;-56
2020/01/28 09:15:15;;;;;;;1.00;1.00;;;;;;;18.88;39.55;98740.20;;;;-56
2020/01/28 09:18:15;;;;;;;1.91;0.91;;;;;;;18.86;39.53;98759.25;;;;-56
2020/01/28 09:21:15;;;;;;;1.19;1.00;;;;;;;18.87;39.46;98765.37;;;;-44
2020/01/28 09:24:15;;;;;;;3.57;1.00;;;;;;;18.86;39.47;98792.11;;;;-46
2020/01/28 09:27:15;;;;;;;1.05;1.00;;;;;;;18.85;39.38;98805.23;;;;-44
2020/01/28 09:33:18;;;;;;;1.09;1.01;;;;;;;18.84;39.38;98814.17;;;;-44
2020/01/28 09:36:15;;;;;;;2.05;0.95;;;;;;;18.85;39.35;98818.41;;;;-44
2020/01/28 09:39:15;;;;;;;1.17;1.09;;;;;;;18.85;39.29;98817.91;;;;-45
2020/01/28 09:42:15;;;;;;;1.37;1.00;;;;;;;18.84;39.44;98814.47;;;;-46
2020/01/28 09:45:15;;;;;;;7.16;1.29;;;;;;;18.83;39.67;98818.13;;;;-48
2020/01/28 09:48:15;;;;;;;2.69;1.35;;;;;;;18.81;39.64;98815.11;;;;-50
2020/01/28 09:51:15;;;;;;;1.89;0.94;;;;;;;18.79;39.52;98800.92;;;;-47
2020/01/28 09:54:15;;;;;;;2.79;1.19;;;;;;;18.80;39.59;98802.28;;;;-46
2020/01/28 09:59:15;;;;;;;1.57;1.00;;;;;;;18.80;39.47;98803.45;;;;-50
2020/01/28 10:05:15;;;;;;;6.09;1.32;;;;;;;18.81;39.66;98812.50;;;;-48
2020/01/28 10:08:15;;;;;;;1.04;0.91;;;;;;;18.80;39.46;98816.67;;;;-47
2020/01/28 10:11:15;;;;;;;2.15;1.03;;;;;;;18.79;39.54;98804.53;;;;-51
2020/01/28 10:14:15;;;;;;;2.68;1.10;;;;;;;18.80;39.54;98811.88;;;;-49
2020/01/28 10:17:15;;;;;;;3.45;1.15;;;;;;;18.78;39.54;98808.77;;;;-50
2020/01/28 10:20:15;;;;;;;1.40;0.94;;;;;;;18.80;39.55;98819.52;;;;-50
2020/01/28 10:23:15;;;;;;;2.30;1.11;;;;;;;18.79;39.43;98841.13;;;;-50
2020/01/28 10:26:15;;;;;;;4.54;1.07;;;;;;;18.80;39.48;98846.00;;;;-49
2020/01/28 10:29:15;;;;;;;0.99;0.89;;;;;;;18.79;39.51;98843.16;;;;-48
2020/01/28 10:32:15;;;;;;;1.21;0.90;;;;;;;18.80;39.42;98857.70;;;;-49
2020/01/28 10:35:15;;;;;;;2.42;1.10;;;;;;;18.80;39.41;98873.59;;;;-48
2020/01/28 10:38:15;;;;;;;1.73;0.97;;;;;;;18.79;39.33;98874.84;;;;-47
2020/01/28 10:41:15;;;;;;;0.94;0.94;;;;;;;18.81;39.30;98874.14;;;;-50
2020/01/28 10:44:15;;;;;;;2.43;0.99;;;;;;;18.83;39.37;98870.84;;;;-48
2020/01/28 10:47:15;;;;;;;2.21;0.93;;;;;;;18.85;39.49;98864.17;;;;-47
2020/01/28 10:50:15;;;;;;;2.25;1.00;;;;;;;18.85;39.52;98872.39;;;;-47
2020/01/28 10:53:15;;;;;;;2.25;1.10;;;;;;;18.86;39.59;98877.83;;;;-50
2020/01/28 10:56:15;;;;;;;2.39;1.11;;;;;;;18.88;39.55;98877.52;;;;-50
2020/01/28 10:59:15;;;;;;;3.58;0.98;;;;;;;18.89;39.38;98907.31;;;;-50
2020/01/28 11:02:15;;;;;;;2.09;1.13;;;;;;;18.88;39.30;98945.52;;;;-57
2020/01/28 11:05:15;;;;;;;1.10;1.00;;;;;;;18.87;39.27;98937.91;;;;-56
2020/01/28 11:08:15;;;;;;;0.90;0.90;;;;;;;18.86;39.20;98918.48;;;;-56
2020/01/28 11:11:15;;;;;;;1.55;0.83;;;;;;;18.86;39.19;98908.75;;;;-56
2020/01/28 11:14:15;;;;;;;1.57;0.94;;;;;;;18.84;39.26;98917.00;;;;-56
2020/01/28 11:17:15;;;;;;;2.16;1.00;;;;;;;18.85;39.15;98973.24;;;;-53
2020/01/28 11:20:15;;;;;;;1.65;1.11;;;;;;;18.86;39.14;98984.52;;;;-54
2020/01/28 11:23:15;;;;;;;1.05;0.96;;;;;;;18.87;39.12;99018.16;;;;-54
2020/01/28 11:26:15;;;;;;;0.96;0.88;;;;;;;18.88;39.09;99036.44;;;;-54
2020/01/28 11:29:15;;;;;;;1.29;0.90;;;;;;;18.90;39.06;99013.13;;;;-54
2020/01/28 11:32:15;;;;;;;3.37;1.01;;;;;;;18.92;39.04;99016.37;;;;-54
2020/01/28 11:35:15;;;;;;;1.10;1.00;;;;;;;18.94;39.06;99015.84;;;;-57
2020/01/28 11:38:15;;;;;;;1.46;0.92;;;;;;;18.98;39.21;99012.32;;;;-57
2020/01/28 11:41:15;;;;;;;2.21;1.01;;;;;;;19.02;39.11;98999.70;;;;-59
2020/01/28 11:44:15;;;;;;;1.89;0.95;;;;;;;19.03;39.09;98994.70;;;;-59
2020/01/28 11:47:15;;;;;;;1.52;0.82;;;;;;;19.06;39.02;98981.13;;;;-59
2020/01/28 11:50:15;;;;;;;1.65;1.10;;;;;;;19.08;39.01;98967.61;;;;-59
2020/01/28 11:53:15;;;;;;;1.47;0.99;;;;;;;19.10;39.06;98971.84;;;;-59
2020/01/28 11:56:15;;;;;;;1.29;0.75;;;;;;;19.14;39.00;98956.20;;;;-59
2020/01/28 11:59:15;;;;;;;0.94;0.78;;;;;;;19.15;39.03;98950.23;;;;-60
2020/01/28 12:02:15;;;;;;;0.85;0.84;;;;;;;19.17;39.00;98951.59;;;;-59
2020/01/28 12:05:15;;;;;;;2.17;0.90;;;;;;;19.19;38.98;98953.77;;;;-59
2020/01/28 12:08:15;;;;;;;1.16;0.89;;;;;;;19.22;39.02;98955.14;;;;-59
2020/01/28 12:11:15;;;;;;;0.91;0.90;;;;;;;19.22;38.97;98957.08;;;;-60
2020/01/28 12:14:15;;;;;;;0.92;0.86;;;;;;;19.25;38.93;98960.05;;;;-59
2020/01/28 12:17:15;;;;;;;1.80;0.97;;;;;;;19.25;38.94;98969.35;;;;-59
2020/01/28 12:20:15;;;;;;;1.01;0.91;;;;;;;19.28;38.97;98971.16;;;;-59
2020/01/28 12:23:15;;;;;;;1.03;0.93;;;;;;;19.31;39.00;98973.73;;;;-59
2020/01/28 12:26:15;;;;;;;1.05;0.90;;;;;;;19.31;38.93;98964.63;;;;-58
2020/01/28 12:29:15;;;;;;;4.68;1.00;;;;;;;19.39;39.07;98961.83;;;;-56
2020/01/28 12:33:00;;;;;;;1.47;0.94;;;;;;;19.40;39.02;98965.45;;;;-53
2020/01/28 12:36:24;;;;;;;0.99;0.91;;;;;;;19.43;39.06;98964.45;;;;-50
2020/01/28 12:39:20;;;;;;;3.21;1.00;;;;;;;19.45;39.09;98974.70;;;;-51
2020/01/28 12:42:24;;;;;;;1.61;0.91;;;;;;;19.47;38.95;98950.10;;;;-51
2020/01/28 12:45:15;;;;;;;1.00;0.89;;;;;;;19.46;38.95;98949.44;;;;-51
2020/01/28 12:48:15;;;;;;;1.45;0.91;;;;;;;19.46;39.04;98944.15;;;;-51
2020/01/28 12:51:15;;;;;;;1.22;0.98;;;;;;;19.47;38.97;98937.47;;;;-51
2020/01/28 12:54:15;;;;;;;1.81;0.88;;;;;;;19.49;38.92;98942.37;;;;-51
2020/01/28 12:57:15;;;;;;;0.75;0.74;;;;;;;19.48;38.89;98934.22;;;;-51
2020/01/28 13:00:15;;;;;;;0.90;0.90;;;;;;;19.48;38.92;98943.19;;;;-51
2020/01/28 13:03:15;;;;;;;0.91;0.84;;;;;;;19.48;38.90;98949.21;;;;-50
2020/01/28 13:06:15;;;;;;;1.59;0.95;;;;;;;19.48;38.93;98968.40;;;;-51
2020/01/28 13:09:15;;;;;;;0.79;0.79;;;;;;;19.48;38.84;98989.49;;;;-51
2020/01/28 13:12:15;;;;;;;1.17;0.81;;;;;;;19.49;38.86;99022.80;;;;-51
2020/01/28 13:15:15;;;;;;;1.25;0.91;;;;;;;19.49;38.81;99065.03;;;;-51
2020/01/28 13:18:15;;;;;;;0.83;0.83;;;;;;;19.49;38.83;99043.23;;;;-51
2020/01/28 13:21:15;;;;;;;1.17;1.00;;;;;;;19.47;38.81;99031.33;;;;-50
2020/01/28 13:24:15;;;;;;;2.21;0.99;;;;;;;19.50;38.90;99026.94;;;;-46
2020/01/28 13:27:15;;;;;;;3.08;0.95;;;;;;;19.50;39.44;99032.04;;;;-51
2020/01/28 13:30:15;;;;;;;2.37;0.93;;;;;;;19.50;39.36;99027.28;;;;-47
2020/01/28 13:33:15;;;;;;;1.97;1.10;;;;;;;19.49;38.89;99025.23;;;;-47
2020/01/28 13:36:15;;;;;;;1.56;1.05;;;;;;;19.48;38.61;99038.72;;;;-48
2020/01/28 13:39:15;;;;;;;3.00;1.27;;;;;;;19.49;38.53;99048.78;;;;-50
2020/01/28 13:42:15;;;;;;;4.21;1.30;;;;;;;19.50;39.05;99054.56;;;;-45
2020/01/28 13:45:15;;;;;;;3.19;1.21;;;;;;;19.51;39.25;99056.84;;;;-46
2020/01/28 13:48:15;;;;;;;4.69;1.22;;;;;;;19.50;38.88;99065.28;;;;-46
2020/01/28 13:51:15;;;;;;;1.99;1.12;;;;;;;19.51;38.82;99084.23;;;;-44
2020/01/28 13:54:16;;;;;;;2.72;1.27;;;;;;;19.53;39.01;99079.25;;;;-45
2020/01/28 13:57:15;;;;;;;2.95;1.11;;;;;;;19.54;38.64;99083.02;;;;-46
2020/01/28 14:00:15;;;;;;;4.23;1.20;;;;;;;19.54;38.66;99079.94;;;;-46
2020/01/28 14:03:15;;;;;;;2.99;1.27;;;;;;;19.54;38.79;99079.94;;;;-46
2020/01/28 14:06:15;;;;;;;3.77;1.17;;;;;;;19.56;38.75;99073.36;;;;-46
2020/01/28 14:09:15;;;;;;;2.73;1.25;;;;;;;19.55;38.68;99080.97;;;;-46
2020/01/28 14:12:15;;;;;;;1.59;1.10;;;;;;;19.57;38.71;99076.73;;;;-46
2020/01/28 14:15:15;;;;;;;3.42;1.19;;;;;;;19.56;38.70;99079.98;;;;-48
2020/01/28 14:18:15;;;;;;;4.38;1.30;;;;;;;19.58;38.60;99085.63;;;;-48
2020/01/28 14:21:15;;;;;;;1.50;1.11;;;;;;;19.58;38.63;99085.28;;;;-48
2020/01/28 14:24:15;;;;;;;2.35;1.19;;;;;;;19.59;38.61;99094.02;;;;-48
2020/01/28 14:27:15;;;;;;;1.39;1.13;;;;;;;19.60;38.57;99099.39;;;;-47
2020/01/28 14:30:15;;;;;;;2.33;1.10;;;;;;;19.61;38.64;99099.59;;;;-46
2020/01/28 14:33:15;;;;;;;1.54;1.12;;;;;;;19.61;38.58;99099.98;;;;-46
2020/01/28 14:36:15;;;;;;;1.61;1.13;;;;;;;19.63;38.62;99112.70;;;;-46
2020/01/28 14:39:15;;;;;;;2.18;1.10;;;;;;;19.62;38.67;99108.66;;;;-47
2020/01/28 14:42:15;;;;;;;1.77;1.23;;;;;;;19.63;38.62;99116.64;;;;-46
2020/01/28 14:45:15;;;;;;;1.43;1.15;;;;;;;19.64;38.63;99119.75;;;;-46
2020/01/28 14:48:15;;;;;;;1.87;1.17;;;;;;;19.65;38.59;99125.30;;;;-46
2020/01/28 14:51:15;;;;;;;1.27;1.05;;;;;;;19.65;38.59;99132.43;;;;-46
2020/01/28 14:54:15;;;;;;;1.21;1.03;;;;;;;19.66;38.58;99131.75;;;;-46
2020/01/28 14:57:15;;;;;;;1.17;1.11;;;;;;;19.66;38.60;99144.75;;;;-46
2020/01/28 15:00:15;;;;;;;1.23;1.06;;;;;;;19.67;38.59;99153.15;;;;-46
2020/01/28 15:03:38;;;;;;;3.07;1.06;;;;;;;19.66;38.55;99151.95;;;;-46
2020/01/28 15:09:15;;;;;;;0.90;0.87;;;;;;;19.67;38.52;99150.88;;;;-46
2020/01/28 15:12:15;;;;;;;1.20;0.98;;;;;;;19.67;38.49;99186.91;;;;-46
2020/01/28 15:15:15;;;;;;;1.09;0.95;;;;;;;19.66;38.53;99231.09;;;;-46
2020/01/28 15:18:15;;;;;;;1.17;0.91;;;;;;;19.67;38.51;99190.42;;;;-46
2020/01/28 15:21:15;;;;;;;1.87;1.02;;;;;;;19.71;38.44;99203.55;;;;-47
2020/01/28 15:24:15;;;;;;;2.12;1.11;;;;;;;19.73;38.78;99194.98;;;;-48
2020/01/28 15:27:15;;;;;;;2.27;1.09;;;;;;;19.76;38.85;99200.08;;;;-47
2020/01/28 15:30:15;;;;;;;3.60;1.19;;;;;;;19.79;38.93;99202.73;;;;-48
2020/01/28 15:33:15;;;;;;;2.71;1.19;;;;;;;19.78;38.69;99206.66;;;;-43
2020/01/28 15:36:15;;;;;;;3.53;1.26;;;;;;;19.74;38.21;99199.13;;;;-44
2020/01/28 15:39:15;;;;;;;2.71;1.29;;;;;;;19.70;38.06;99200.95;;;;-48
2020/01/28 15:42:15;;;;;;;6.00;1.33;;;;;;;19.68;37.83;99200.30;;;;-44
2020/01/28 15:45:15;;;;;;;14.71;1.68;;;;;;;19.69;38.13;99202.36;;;;-44
2020/01/28 15:48:15;;;;;;;3.50;1.30;;;;;;;19.72;38.43;99210.11;;;;-43
2020/01/28 15:51:15;;;;;;;2.93;1.25;;;;;;;19.74;38.62;99211.66;;;;-44
2020/01/28 15:54:15;;;;;;;5.35;1.30;;;;;;;19.79;39.21;99217.91;;;;-42
2020/01/28 15:57:15;;;;;;;4.58;1.31;;;;;;;19.83;39.71;99209.95;;;;-46
2020/01/28 16:00:15;;;;;;;4.36;1.24;;;;;;;19.85;39.20;99215.94;;;;-47
2020/01/28 16:03:15;;;;;;;5.11;1.28;;;;;;;19.87;39.26;99210.12;;;;-47
2020/01/28 16:06:15;;;;;;;2.54;1.27;;;;;;;19.89;39.37;99205.48;;;;-47
2020/01/28 16:09:15;;;;;;;3.25;1.17;;;;;;;19.91;39.16;99204.25;;;;-48
2020/01/28 16:12:15;;;;;;;2.45;1.20;;;;;;;19.93;39.34;99224.23;;;;-47
2020/01/28 16:15:15;;;;;;;3.21;1.12;;;;;;;19.93;39.08;99230.80;;;;-46
2020/01/28 16:18:15;;;;;;;3.27;1.23;;;;;;;19.94;39.34;99228.80;;;;-48
2020/01/28 16:21:15;;;;;;;3.77;1.18;;;;;;;19.96;39.31;99252.88;;;;-48
2020/01/28 16:24:15;;;;;;;3.96;1.11;;;;;;;19.96;39.25;99291.52;;;;-44
2020/01/28 16:27:15;;;;;;;2.64;1.11;;;;;;;19.96;38.97;99309.19;;;;-48
2020/01/28 16:30:15;;;;;;;6.50;1.55;;;;;;;19.96;38.96;99295.78;;;;-46
2020/01/28 16:33:15;;;;;;;3.69;1.20;;;;;;;19.97;39.04;99300.83;;;;-48
2020/01/28 16:36:15;;;;;;;3.29;1.30;;;;;;;19.98;39.22;99298.47;;;;-48
2020/01/28 16:39:15;;;;;;;3.81;1.19;;;;;;;19.98;39.17;99268.48;;;;-45
2020/01/28 16:42:15;;;;;;;1.89;1.20;;;;;;;19.98;39.20;99273.67;;;;-45
2020/01/28 16:45:15;;;;;;;1.65;1.10;;;;;;;19.99;39.27;99276.92;;;;-47
2020/01/28 16:48:15;;;;;;;4.17;1.19;;;;;;;20.00;39.36;99288.43;;;;-44
2020/01/28 16:51:15;;;;;;;1.79;1.25;;;;;;;20.00;39.20;99314.41;;;;-44
2020/01/28 16:54:15;;;;;;;1.31;1.01;;;;;;;20.02;39.22;99325.02;;;;-44
2020/01/28 17:00:21;;;;;;;2.29;1.18;;;;;;;20.01;38.97;99313.02;;;;-43
2020/01/28 17:03:15;;;;;;;3.13;1.08;;;;;;;20.02;39.09;99318.72;;;;-45
2020/01/28 17:06:15;;;;;;;1.42;1.11;;;;;;;20.03;39.19;99326.48;;;;-43
2020/01/28 17:09:15;;;;;;;3.58;1.11;;;;;;;20.04;39.41;99318.36;;;;-46
2020/01/28 17:12:15;;;;;;;4.59;1.15;;;;;;;20.07;39.14;99325.04;;;;-49
2020/01/28 17:15:15;;;;;;;8.18;1.53;;;;;;;20.06;39.21;99315.39;;;;-47
2020/01/28 17:18:15;;;;;;;8.37;1.54;;;;;;;20.10;39.21;99324.20;;;;-45
2020/01/28 17:21:15;;;;;;;11.66;1.61;;;;;;;20.10;39.05;99322.52;;;;-47
2020/01/28 17:24:15;;;;;;;8.43;1.37;;;;;;;20.10;38.98;99327.12;;;;-47
2020/01/28 17:27:15;;;;;;;5.61;1.43;;;;;;;20.11;39.25;99321.38;;;;-48